createdAt,value
2023-04-02T00:02:21.688Z,8.92
2023-04-02T00:05:19.817Z,9.50
2023-04-02T00:08:29.991Z,8.33
2023-04-02T00:11:32.043Z,7.09
2023-04-02T00:14:33.554Z,7.03
2023-04-02T00:17:23.143Z,8.97
2023-04-02T00:20:17.951Z,9.69
2023-04-02T00:23:06.396Z,8.23
2023-04-02T00:25:52.575Z,6.99
2023-04-02T00:28:39.230Z,7.51
2023-04-02T00:31:26.183Z,9.19
2023-04-02T00:34:30.906Z,9.00
2023-04-02T00:37:23.885Z,7.40
2023-04-02T00:40:26.833Z,6.61
2023-04-02T00:43:16.880Z,8.29
2023-04-02T00:46:14.937Z,9.85
2023-04-02T00:49:22.693Z,9.28
2023-04-02T00:52:13.212Z,7.66
2023-04-02T00:55:16.319Z,6.66
2023-04-02T00:58:04.604Z,6.88
2023-04-02T01:00:52.198Z,8.83
2023-04-02T01:03:39.069Z,9.37
2023-04-02T01:06:30.229Z,8.01
2023-04-02T01:09:29.007Z,6.79
2023-04-02T01:12:27.840Z,6.71
2023-04-02T01:15:21.507Z,8.71
2023-04-02T01:18:26.676Z,9.43
2023-04-02T01:21:17.918Z,8.10
2023-04-02T01:24:07.387Z,6.91
2023-04-02T01:26:58.353Z,6.70
2023-04-02T01:29:51.949Z,8.68
2023-04-02T01:32:39.544Z,9.35
2023-04-02T01:35:31.198Z,8.04
2023-04-02T01:38:25.785Z,6.83
2023-04-02T01:41:24.083Z,6.65
2023-04-02T01:44:19.002Z,8.73
2023-04-02T01:47:12.186Z,9.45
2023-04-02T01:50:16.076Z,8.13
2023-04-02T01:53:14.915Z,6.90
2023-04-02T01:56:02.736Z,6.49
2023-04-02T01:58:50.101Z,8.30
2023-04-02T02:02:00.397Z,9.66
2023-04-02T02:04:48.855Z,8.69
2023-04-02T02:07:35.786Z,7.30
2023-04-02T02:10:30.180Z,6.39
2023-04-02T02:13:16.885Z,6.54
2023-04-02T02:16:04.603Z,8.50
2023-04-02T02:18:54.966Z,9.24
2023-04-02T02:21:45.768Z,8.05
2023-04-02T02:24:35.765Z,6.88
2023-04-02T02:27:24.576Z,6.16
2023-04-02T02:30:33.079Z,7.63
2023-04-02T02:33:44.717Z,9.32
2023-04-02T02:36:52.779Z,8.37
2023-04-02T02:39:44.157Z,7.04
2023-04-02T02:42:42.835Z,6.10
2023-04-02T02:45:35.898Z,6.10
2023-04-02T02:48:27.240Z,8.15
2023-04-02T02:51:21.983Z,9.06
2023-04-02T02:54:09.639Z,7.71
2023-04-02T02:57:06.454Z,6.60
2023-04-02T02:59:56.997Z,5.77
2023-04-02T03:02:44.822Z,6.01
2023-04-02T03:05:31.931Z,8.04
2023-04-02T03:08:33.484Z,8.94
2023-04-02T03:11:33.485Z,7.48
2023-04-02T03:14:45.523Z,6.33
2023-04-02T03:17:49.303Z,5.54
2023-04-02T03:20:40.912Z,5.90
2023-04-02T03:23:36.499Z,7.91
2023-04-02T03:26:40.902Z,8.44
2023-04-02T03:29:32.154Z,7.17
2023-04-02T03:32:24.219Z,6.11
2023-04-02T03:35:22.520Z,5.47
2023-04-02T03:38:25.787Z,7.17
2023-04-02T03:41:12.123Z,8.33
2023-04-02T03:44:07.759Z,7.06
2023-04-02T03:47:01.585Z,5.92
2023-04-02T03:49:56.801Z,5.87
2023-04-02T03:52:44.952Z,7.90
2023-04-02T03:55:37.241Z,8.81
2023-04-02T03:58:32.138Z,7.46
2023-04-02T04:01:23.288Z,6.18
2023-04-02T04:04:21.884Z,5.54
2023-04-02T04:07:15.851Z,7.36
2023-04-02T04:10:04.681Z,8.58
2023-04-02T04:12:54.527Z,7.54
2023-04-02T04:15:51.712Z,6.27
2023-04-02T04:18:50.002Z,5.61
2023-04-02T04:21:39.865Z,7.27
2023-04-02T04:24:32.857Z,8.81
2023-04-02T04:27:33.787Z,8.21
2023-04-02T04:30:28.525Z,6.61
2023-04-02T04:33:23.072Z,5.59
2023-04-02T04:36:29.184Z,5.68
2023-04-02T04:39:50.754Z,8.09
2023-04-02T04:42:41.561Z,8.61
2023-04-02T04:45:43.232Z,7.24
2023-04-02T04:48:47.537Z,6.03
2023-04-02T04:51:45.333Z,6.04
2023-04-02T04:54:38.351Z,8.20
2023-04-02T04:57:34.391Z,8.34
2023-04-02T05:00:49.666Z,7.15
2023-04-02T05:04:01.600Z,5.88
2023-04-02T05:06:57.646Z,6.08
2023-04-02T05:10:10.805Z,8.19
2023-04-02T05:13:05.808Z,8.22
2023-04-02T05:16:16.384Z,6.88
2023-04-02T05:19:21.217Z,5.80
2023-04-02T05:22:33.416Z,5.26
2023-04-02T05:25:23.692Z,7.45
2023-04-02T05:28:30.654Z,8.54
2023-04-02T05:31:42.200Z,7.17
2023-04-02T05:34:34.580Z,5.99
2023-04-02T05:37:26.354Z,5.31
2023-04-02T05:40:24.294Z,6.63
2023-04-02T05:43:18.020Z,8.67
2023-04-02T05:46:15.451Z,8.36
2023-04-02T05:49:08.697Z,6.94
2023-04-02T05:52:01.474Z,6.00
2023-04-02T05:54:57.810Z,5.36
2023-04-02T05:58:13.517Z,5.47
2023-04-02T06:01:02.719Z,8.00
2023-04-02T06:04:26.830Z,8.77
2023-04-02T06:07:18.444Z,7.19
2023-04-02T06:10:24.155Z,6.17
2023-04-02T06:13:17.862Z,5.62
2023-04-02T06:16:06.271Z,7.33
2023-04-02T06:18:53.662Z,8.59
2023-04-02T06:21:50.002Z,7.61
2023-04-02T06:24:41.273Z,6.44
2023-04-02T06:27:29.255Z,5.69
2023-04-02T06:30:41.202Z,6.87
2023-04-02T06:33:28.136Z,9.13
2023-04-02T06:36:15.019Z,8.84
2023-04-02T06:39:07.828Z,7.55
2023-04-02T06:42:16.587Z,6.54
2023-04-02T06:45:32.080Z,5.75
2023-04-02T06:48:52.736Z,6.39
2023-04-02T06:51:41.761Z,8.59
2023-04-02T06:54:29.292Z,9.17
2023-04-02T06:57:20.100Z,8.03
2023-04-02T07:00:34.403Z,7.03
2023-04-02T07:03:30.194Z,6.20
2023-04-02T07:06:21.318Z,6.56
2023-04-02T07:09:09.924Z,8.73
2023-04-02T07:11:59.561Z,8.75
2023-04-02T07:14:47.996Z,7.47
2023-04-02T07:17:34.616Z,6.61
2023-04-02T07:20:30.953Z,6.03
2023-04-02T07:23:21.225Z,6.21
2023-04-02T07:26:13.075Z,8.24
2023-04-02T07:28:59.684Z,8.58
2023-04-02T07:31:46.569Z,7.47
2023-04-02T07:34:33.338Z,6.62
2023-04-02T07:37:20.376Z,6.05
2023-04-02T07:40:11.894Z,6.21
2023-04-02T07:42:58.138Z,8.36
2023-04-02T07:45:44.835Z,9.22
2023-04-02T07:48:31.931Z,8.06
2023-04-02T07:51:24.411Z,7.08
2023-04-02T07:54:11.267Z,6.42
2023-04-02T07:56:57.754Z,6.60
2023-04-02T07:59:44.200Z,8.63
2023-04-02T08:02:30.757Z,8.90
2023-04-02T08:05:18.150Z,7.89
2023-04-02T08:08:04.900Z,7.20
2023-04-02T08:10:51.689Z,6.74
2023-04-02T08:13:38.837Z,7.08
2023-04-02T08:16:25.777Z,9.32
2023-04-02T08:19:12.756Z,10.24
2023-04-02T08:21:59.472Z,9.29
2023-04-02T08:24:45.893Z,8.52
2023-04-02T08:27:32.208Z,8.09
2023-04-02T08:30:19.205Z,7.68
2023-04-02T08:33:05.610Z,7.40
2023-04-02T08:35:52.451Z,7.26
2023-04-02T08:38:38.967Z,8.72
2023-04-02T08:41:32.290Z,10.34
2023-04-02T08:44:29.684Z,9.68
2023-04-02T08:47:20.427Z,8.94
2023-04-02T08:50:23.184Z,8.41
2023-04-02T08:53:24.614Z,7.97
2023-04-02T08:56:18.138Z,7.73
2023-04-02T08:59:22.832Z,7.65
2023-04-02T09:02:46.973Z,7.51
2023-04-02T09:05:37.757Z,7.33
2023-04-02T09:08:26.467Z,7.23
2023-04-02T09:11:23.810Z,7.09
2023-04-02T09:14:18.560Z,7.21
2023-04-02T09:17:12.638Z,9.42
2023-04-02T09:20:12.689Z,9.73
2023-04-02T09:22:59.497Z,8.92
2023-04-02T09:26:02.908Z,8.39
2023-04-02T09:28:55.361Z,8.09
2023-04-02T09:31:46.637Z,7.96
2023-04-02T09:34:36.146Z,7.93
2023-04-02T09:37:25.703Z,7.92
2023-04-02T09:40:32.603Z,8.03
2023-04-02T09:43:28.325Z,8.21
2023-04-02T09:46:25.927Z,8.03
2023-04-02T09:49:16.434Z,7.81
2023-04-02T09:52:06.184Z,7.73
2023-04-02T09:55:29.174Z,7.59
2023-04-02T09:58:17.566Z,7.34
2023-04-02T10:01:05.185Z,7.20
2023-04-02T10:03:52.102Z,7.12
2023-04-02T10:06:49.535Z,7.16
2023-04-02T10:09:38.604Z,7.26
2023-04-02T10:12:27.018Z,7.43
2023-04-02T10:15:23.416Z,7.47
2023-04-02T10:18:21.802Z,7.44
2023-04-02T10:21:12.945Z,7.45
2023-04-02T10:23:59.805Z,7.36
2023-04-02T10:27:29.836Z,7.32
2023-04-02T10:30:27.333Z,7.35
2023-04-02T10:33:22.278Z,7.31
2023-04-02T10:36:19.673Z,7.25
2023-04-02T10:39:25.631Z,7.23
2023-04-02T10:42:28.410Z,7.25
2023-04-02T10:45:17.585Z,7.27
2023-04-02T10:48:25.460Z,7.40
2023-04-02T10:51:46.441Z,7.44
2023-04-02T10:54:52.642Z,7.51
2023-04-02T10:57:43.328Z,7.62
2023-04-02T11:00:34.767Z,7.82
2023-04-02T11:03:34.294Z,7.98
2023-04-02T11:06:32.424Z,7.97
2023-04-02T11:09:24.825Z,7.99
2023-04-02T11:12:24.539Z,8.14
2023-04-02T11:15:18.118Z,8.22
2023-04-02T11:18:04.931Z,8.21
2023-04-02T11:20:56.339Z,8.28
2023-04-02T11:24:03.001Z,8.27
2023-04-02T11:26:50.606Z,8.20
2023-04-02T11:30:06.420Z,8.22
2023-04-02T11:32:54.333Z,8.11
2023-04-02T11:35:41.163Z,8.17
2023-04-02T11:38:29.241Z,8.22
2023-04-02T11:41:55.546Z,8.43
2023-04-02T11:44:42.223Z,8.60
2023-04-02T11:47:30.447Z,8.66
2023-04-02T11:50:28.957Z,8.67
2023-04-02T11:53:22.861Z,8.86
2023-04-02T11:56:43.006Z,8.91
2023-04-02T11:59:55.608Z,8.89
2023-04-02T12:02:55.821Z,8.92
2023-04-02T12:05:54.710Z,9.03
2023-04-02T12:09:18.904Z,9.08
2023-04-02T12:12:24.559Z,9.09
2023-04-02T12:15:27.107Z,9.06
2023-04-02T12:18:21.909Z,9.08
2023-04-02T12:21:14.528Z,9.07
2023-04-02T12:24:03.305Z,9.19
2023-04-02T12:27:06.778Z,9.20
2023-04-02T12:29:55.078Z,9.25
2023-04-02T12:32:41.916Z,9.15
2023-04-02T12:35:34.489Z,9.19
2023-04-02T12:38:22.984Z,9.12
2023-04-02T12:41:27.168Z,9.03
2023-04-02T12:44:18.800Z,9.04
2023-04-02T12:47:05.489Z,9.10
2023-04-02T12:49:53.024Z,9.14
2023-04-02T12:52:45.999Z,9.06
2023-04-02T12:55:33.633Z,8.95
2023-04-02T12:58:41.154Z,8.95
2023-04-02T13:01:29.830Z,8.84
2023-04-02T13:04:16.596Z,8.81
2023-04-02T13:07:03.535Z,8.87
2023-04-02T13:09:55.606Z,8.97
2023-04-02T13:12:42.133Z,9.03
2023-04-02T13:15:34.407Z,9.06
2023-04-02T13:18:23.099Z,9.12
2023-04-02T13:21:19.492Z,9.18
2023-04-02T13:24:16.987Z,9.30
2023-04-02T13:27:03.898Z,9.52
2023-04-02T13:29:50.719Z,9.80
2023-04-02T13:32:38.199Z,9.91
2023-04-02T13:35:24.940Z,10.03
2023-04-02T13:38:11.275Z,10.31
2023-04-02T13:40:57.596Z,10.79
2023-04-02T13:43:43.876Z,11.52
2023-04-02T13:46:33.639Z,12.80
2023-04-02T13:49:20.937Z,13.49
2023-04-02T13:52:15.571Z,13.63
2023-04-02T13:55:04.280Z,13.28
2023-04-02T13:57:50.679Z,12.80
2023-04-02T14:00:37.978Z,12.17
2023-04-02T14:03:24.603Z,11.62
2023-04-02T14:06:42.494Z,11.00
2023-04-02T14:09:31.842Z,10.27
2023-04-02T14:12:47.408Z,10.39
2023-04-02T14:15:40.489Z,11.69
2023-04-02T14:18:29.807Z,12.50
2023-04-02T14:21:22.179Z,12.20
2023-04-02T14:24:37.804Z,11.78
2023-04-02T14:27:27.105Z,12.24
2023-04-02T14:30:34.107Z,13.62
2023-04-02T14:33:36.083Z,15.01
2023-04-02T14:37:04.920Z,15.67
2023-04-02T14:39:57.481Z,15.29
2023-04-02T14:42:47.301Z,15.24
2023-04-02T14:46:02.817Z,16.19
2023-04-02T14:49:26.708Z,17.13
2023-04-02T14:52:18.802Z,17.86
2023-04-02T14:55:14.518Z,18.89
2023-04-02T14:58:04.668Z,19.51
2023-04-02T15:01:00.408Z,19.72
2023-04-02T15:03:58.411Z,19.86
2023-04-02T15:06:50.458Z,19.99
2023-04-02T15:09:49.269Z,20.17
2023-04-02T15:12:38.826Z,20.43
2023-04-02T15:15:54.246Z,20.49
2023-04-02T15:18:40.882Z,19.90
2023-04-02T15:21:34.296Z,19.69
2023-04-02T15:24:31.072Z,19.86
2023-04-02T15:27:35.620Z,20.12
2023-04-02T15:30:29.364Z,19.78
2023-04-02T15:33:27.750Z,19.02
2023-04-02T15:36:48.251Z,17.47
2023-04-02T15:39:39.251Z,15.91
2023-04-02T15:42:33.293Z,15.44
2023-04-02T15:45:30.428Z,14.45
2023-04-02T15:48:46.775Z,13.27
2023-04-02T15:51:50.343Z,12.02
2023-04-02T15:54:36.678Z,10.93
2023-04-02T15:57:54.716Z,9.99
2023-04-02T16:01:11.835Z,9.12
2023-04-02T16:04:29.915Z,8.43
2023-04-02T16:07:36.251Z,7.86
2023-04-02T16:10:41.220Z,7.47
2023-04-02T16:13:37.981Z,7.16
2023-04-02T16:16:34.794Z,6.99
2023-04-02T16:19:30.728Z,6.79
2023-04-02T16:22:20.450Z,6.62
2023-04-02T16:25:16.735Z,6.50
2023-04-02T16:28:26.551Z,6.41
2023-04-02T16:31:19.298Z,6.38
2023-04-02T16:34:17.671Z,6.36
2023-04-02T16:37:16.567Z,6.38
2023-04-02T16:40:33.381Z,6.37
2023-04-02T16:43:32.475Z,6.29
2023-04-02T16:46:44.228Z,6.20
2023-04-02T16:49:40.814Z,6.14
2023-04-02T16:52:54.714Z,6.06
2023-04-02T16:55:59.571Z,5.99
2023-04-02T16:59:19.754Z,5.88
2023-04-02T17:02:27.510Z,5.73
2023-04-02T17:05:32.555Z,5.58
2023-04-02T17:08:27.562Z,5.46
2023-04-02T17:11:24.264Z,5.31
2023-04-02T17:14:28.450Z,5.15
2023-04-02T17:17:16.901Z,4.99
2023-04-02T17:20:12.842Z,4.83
2023-04-02T17:23:02.742Z,4.67
2023-04-02T17:25:57.876Z,4.51
2023-04-02T17:28:47.506Z,4.38
2023-04-02T17:31:35.904Z,4.26
2023-04-02T17:34:24.011Z,4.15
2023-04-02T17:37:35.050Z,4.06
2023-04-02T17:40:48.086Z,3.96
2023-04-02T17:43:40.069Z,3.89
2023-04-02T17:46:41.472Z,3.83
2023-04-02T17:49:36.861Z,3.77
2023-04-02T17:52:39.752Z,3.71
2023-04-02T17:55:45.074Z,3.64
2023-04-02T17:58:50.059Z,3.57
2023-04-02T18:01:55.869Z,3.50
2023-04-02T18:05:04.299Z,3.43
2023-04-02T18:08:33.249Z,3.37
2023-04-02T18:11:36.859Z,3.32
2023-04-02T18:14:29.451Z,3.28
2023-04-02T18:17:35.695Z,3.24
2023-04-02T18:20:28.346Z,3.20
2023-04-02T18:23:26.524Z,3.15
2023-04-02T18:26:18.750Z,3.09
2023-04-02T18:29:29.614Z,3.04
2023-04-02T18:32:49.817Z,2.97
2023-04-02T18:36:19.087Z,2.92
2023-04-02T18:39:13.183Z,2.86
2023-04-02T18:42:23.178Z,2.81
2023-04-02T18:45:48.551Z,2.77
2023-04-02T18:48:57.657Z,2.71
2023-04-02T18:51:44.202Z,2.67
2023-04-02T18:54:40.548Z,2.62
2023-04-02T18:57:34.138Z,2.58
2023-04-02T19:00:34.523Z,2.53
2023-04-02T19:03:41.557Z,2.50
2023-04-02T19:06:42.532Z,2.46
2023-04-02T19:09:36.559Z,2.44
2023-04-02T19:12:24.280Z,2.40
2023-04-02T19:15:18.780Z,2.39
2023-04-02T19:18:20.392Z,2.37
2023-04-02T19:21:17.353Z,2.36
2023-04-02T19:24:22.763Z,2.33
2023-04-02T19:27:33.524Z,2.28
2023-04-02T19:30:49.705Z,2.23
2023-04-02T19:33:55.741Z,2.20
2023-04-02T19:36:57.481Z,2.17
2023-04-02T19:40:13.918Z,2.14
2023-04-02T19:43:00.610Z,2.11
2023-04-02T19:45:49.206Z,2.08
2023-04-02T19:48:44.747Z,2.06
2023-04-02T19:51:31.582Z,2.03
2023-04-02T19:54:18.766Z,2.00
2023-04-02T19:57:06.118Z,1.97
2023-04-02T19:59:52.777Z,1.92
2023-04-02T20:02:39.499Z,1.90
2023-04-02T20:05:26.247Z,1.87
2023-04-02T20:08:12.957Z,1.84
2023-04-02T20:11:00.211Z,1.82
2023-04-02T20:13:47.880Z,1.79
2023-04-02T20:16:36.715Z,1.75
2023-04-02T20:19:23.220Z,1.74
2023-04-02T20:22:09.582Z,2.41
2023-04-02T20:24:56.237Z,5.16
2023-04-02T20:27:42.874Z,6.28
2023-04-02T20:30:32.387Z,5.20
2023-04-02T20:33:22.210Z,4.19
2023-04-02T20:36:17.017Z,3.48
2023-04-02T20:39:07.193Z,2.96
2023-04-02T20:41:53.822Z,2.64
2023-04-02T20:44:41.502Z,2.38
2023-04-02T20:47:27.735Z,2.17
2023-04-02T20:50:14.546Z,2.00
2023-04-02T20:53:01.642Z,1.86
2023-04-02T20:55:48.260Z,1.76
2023-04-02T20:58:36.171Z,2.38
2023-04-02T21:01:25.343Z,5.03
2023-04-02T21:04:13.084Z,6.97
2023-04-02T21:06:59.560Z,6.24
2023-04-02T21:09:45.877Z,4.91
2023-04-02T21:12:32.317Z,3.94
2023-04-02T21:15:18.799Z,3.28
2023-04-02T21:18:05.241Z,2.81
2023-04-02T21:21:06.410Z,2.42
2023-04-02T21:24:01.117Z,2.13
2023-04-02T21:26:47.689Z,1.89
2023-04-02T21:29:34.402Z,1.69
2023-04-02T21:32:21.987Z,1.81
2023-04-02T21:35:09.223Z,4.22
2023-04-02T21:37:56.197Z,6.04
2023-04-02T21:40:42.670Z,4.98
2023-04-02T21:43:29.301Z,3.84
2023-04-02T21:46:19.002Z,3.12
2023-04-02T21:49:08.141Z,2.61
2023-04-02T21:51:54.816Z,2.23
2023-04-02T21:54:41.349Z,1.94
2023-04-02T21:57:28.148Z,2.31
2023-04-02T22:00:15.705Z,4.85
2023-04-02T22:03:02.298Z,5.35
2023-04-02T22:05:48.933Z,4.23
2023-04-02T22:08:35.979Z,3.35
2023-04-02T22:11:26.614Z,2.72
2023-04-02T22:14:13.767Z,2.26
2023-04-02T22:17:00.746Z,1.92
2023-04-02T22:19:47.477Z,1.65
2023-04-02T22:22:33.650Z,2.16
2023-04-02T22:25:19.952Z,4.76
2023-04-02T22:28:06.218Z,6.07
2023-04-02T22:30:53.437Z,4.96
2023-04-02T22:33:41.525Z,3.82
2023-04-02T22:36:29.888Z,3.02
2023-04-02T22:39:17.106Z,2.46
2023-04-02T22:42:03.885Z,2.04
2023-04-02T22:44:50.393Z,1.73
2023-04-02T22:47:36.760Z,2.66
2023-04-02T22:50:23.087Z,5.37
2023-04-02T22:53:11.994Z,6.35
2023-04-02T22:56:13.337Z,5.03
2023-04-02T22:59:00.837Z,3.70
2023-04-02T23:01:47.599Z,2.88
2023-04-02T23:04:34.410Z,2.30
2023-04-02T23:07:20.652Z,1.82
2023-04-02T23:10:07.601Z,1.78
2023-04-02T23:12:54.425Z,4.11
2023-04-02T23:15:44.730Z,6.10
2023-04-02T23:18:33.217Z,5.30
2023-04-02T23:21:21.250Z,3.86
2023-04-02T23:24:07.483Z,2.84
2023-04-02T23:26:54.222Z,2.13
2023-04-02T23:29:40.656Z,1.69
2023-04-02T23:32:26.903Z,3.09
2023-04-02T23:35:13.491Z,5.61
2023-04-02T23:38:00.035Z,5.59
2023-04-02T23:40:46.476Z,4.19
2023-04-02T23:43:33.328Z,3.06
2023-04-02T23:46:20.684Z,2.28
2023-04-02T23:49:11.252Z,1.70
2023-04-02T23:51:58.045Z,2.23
2023-04-02T23:54:44.399Z,4.80
2023-04-02T23:57:30.924Z,5.82
